sensor_id;sensor_type;location;lat;lon;timestamp;pressure;altitude;pressure_sealevel;temperature;humidity
72925;BME280;61070;50.794;7.054;2023-04-08T00:01:51;101385.16;;;8.41;100.00
72925;BME280;61070;50.794;7.054;2023-04-08T00:04:16;101382.53;;;8.41;100.00
72925;BME280;61070;50.794;7.054;2023-04-08T00:06:41;101389.56;;;8.42;100.00
72925;BME280;61070;50.794;7.054;2023-04-08T00:09:06;101386.00;;;8.37;100.00
72925;BME280;61070;50.794;7.054;2023-04-08T00:11:32;101396.63;;;8.45;100.00
72925;BME280;61070;50.794;7.054;2023-04-08T00:13:58;101397.41;;;8.35;100.00
72925;BME280;61070;50.794;7.054;2023-04-08T00:16:24;101391.28;;;8.36;100.00
72925;BME280;61070;50.794;7.054;2023-04-08T00:18:50;101389.44;;;8.32;100.00
72925;BME280;61070;50.794;7.054;2023-04-08T00:21:15;101397.38;;;8.32;100.00
72925;BME280;61070;50.794;7.054;2023-04-08T00:23:42;101387.75;;;8.37;100.00
72925;BME280;61070;50.794;7.054;2023-04-08T00:26:07;101397.47;;;8.39;100.00
72925;BME280;61070;50.794;7.054;2023-04-08T00:28:33;101392.19;;;8.39;100.00
72925;BME280;61070;50.794;7.054;2023-04-08T00:30:58;101393.09;;;8.40;100.00
72925;BME280;61070;50.794;7.054;2023-04-08T00:33:23;101400.06;;;8.36;100.00
72925;BME280;61070;50.794;7.054;2023-04-08T00:35:49;101399.25;;;8.40;100.00
72925;BME280;61070;50.794;7.054;2023-04-08T00:38:15;101396.63;;;8.43;100.00
72925;BME280;61070;50.794;7.054;2023-04-08T00:40:40;101401.00;;;8.41;100.00
72925;BME280;61070;50.794;7.054;2023-04-08T00:43:06;101400.13;;;8.39;100.00
72925;BME280;61070;50.794;7.054;2023-04-08T00:45:32;101393.06;;;8.38;100.00
72925;BME280;61070;50.794;7.054;2023-04-08T00:47:57;101395.72;;;8.38;100.00
72925;BME280;61070;50.794;7.054;2023-04-08T00:50:23;101405.34;;;8.36;100.00
72925;BME280;61070;50.794;7.054;2023-04-08T00:52:48;101399.25;;;8.42;100.00
72925;BME280;61070;50.794;7.054;2023-04-08T00:55:13;101397.50;;;8.41;100.00
72925;BME280;61070;50.794;7.054;2023-04-08T00:57:39;101402.78;;;8.41;100.00
72925;BME280;61070;50.794;7.054;2023-04-08T01:00:06;101404.56;;;8.46;100.00
72925;BME280;61070;50.794;7.054;2023-04-08T01:02:50;101403.66;;;8.41;100.00
72925;BME280;61070;50.794;7.054;2023-04-08T01:07:47;101406.31;;;8.44;100.00
72925;BME280;61070;50.794;7.054;2023-04-08T01:10:28;101408.94;;;8.44;100.00
72925;BME280;61070;50.794;7.054;2023-04-08T01:12:56;101401.03;;;8.46;100.00
72925;BME280;61070;50.794;7.054;2023-04-08T01:15:23;101410.72;;;8.47;100.00
72925;BME280;61070;50.794;7.054;2023-04-08T01:17:52;101408.13;;;8.52;100.00
72925;BME280;61070;50.794;7.054;2023-04-08T01:20:20;101416.00;;;8.45;100.00
72925;BME280;61070;50.794;7.054;2023-04-08T01:25:32;101408.94;;;8.44;100.00
72925;BME280;61070;50.794;7.054;2023-04-08T01:28:06;101406.31;;;8.46;100.00
72925;BME280;61070;50.794;7.054;2023-04-08T01:30:33;101409.88;;;8.50;100.00
72925;BME280;61070;50.794;7.054;2023-04-08T01:33:01;101414.22;;;8.41;100.00
72925;BME280;61070;50.794;7.054;2023-04-08T01:35:27;101415.09;;;8.45;100.00
72925;BME280;61070;50.794;7.054;2023-04-08T01:37:53;101408.94;;;8.41;100.00
72925;BME280;61070;50.794;7.054;2023-04-08T01:40:19;101413.34;;;8.45;100.00
72925;BME280;61070;50.794;7.054;2023-04-08T01:42:47;101410.72;;;8.47;100.00
72925;BME280;61070;50.794;7.054;2023-04-08T01:45:13;101406.47;;;8.63;100.00
72925;BME280;61070;50.794;7.054;2023-04-08T01:47:40;101406.34;;;8.49;100.00
72925;BME280;61070;50.794;7.054;2023-04-08T01:50:06;101406.31;;;8.48;100.00
72925;BME280;61070;50.794;7.054;2023-04-08T01:52:34;101408.94;;;8.41;100.00
72925;BME280;61070;50.794;7.054;2023-04-08T01:55:01;101410.63;;;8.36;100.00
72925;BME280;61070;50.794;7.054;2023-04-08T01:57:31;101413.34;;;8.42;100.00
72925;BME280;61070;50.794;7.054;2023-04-08T01:59:59;101408.88;;;8.35;100.00
72925;BME280;61070;50.794;7.054;2023-04-08T02:02:26;101400.94;;;8.37;100.00
72925;BME280;61070;50.794;7.054;2023-04-08T02:04:53;101412.44;;;8.40;100.00
72925;BME280;61070;50.794;7.054;2023-04-08T02:07:18;101405.34;;;8.38;100.00
72925;BME280;61070;50.794;7.054;2023-04-08T02:09:44;101418.56;;;8.36;100.00
72925;BME280;61070;50.794;7.054;2023-04-08T02:12:09;101417.66;;;8.34;100.00
72925;BME280;61070;50.794;7.054;2023-04-08T02:14:35;101414.16;;;8.37;100.00
72925;BME280;61070;50.794;7.054;2023-04-08T02:17:07;101417.66;;;8.36;100.00
72925;BME280;61070;50.794;7.054;2023-04-08T02:19:48;101414.97;;;8.31;100.00
72925;BME280;61070;50.794;7.054;2023-04-08T02:22:24;101423.75;;;8.30;100.00
72925;BME280;61070;50.794;7.054;2023-04-08T02:24:54;101422.00;;;8.32;100.00
72925;BME280;61070;50.794;7.054;2023-04-08T02:27:22;101418.41;;;8.26;100.00
72925;BME280;61070;50.794;7.054;2023-04-08T02:29:50;101419.28;;;8.23;100.00
72925;BME280;61070;50.794;7.054;2023-04-08T02:32:16;101424.59;;;8.26;100.00
72925;BME280;61070;50.794;7.054;2023-04-08T02:34:42;101428.94;;;8.21;100.00
72925;BME280;61070;50.794;7.054;2023-04-08T02:37:08;101426.31;;;8.21;100.00
72925;BME280;61070;50.794;7.054;2023-04-08T02:39:34;101424.53;;;8.17;100.00
72925;BME280;61070;50.794;7.054;2023-04-08T02:41:59;101428.06;;;8.21;100.00
72925;BME280;61070;50.794;7.054;2023-04-08T02:44:25;101426.28;;;8.18;100.00
72925;BME280;61070;50.794;7.054;2023-04-08T02:46:50;101421.00;;;8.16;100.00
72925;BME280;61070;50.794;7.054;2023-04-08T02:49:15;101424.56;;;8.23;100.00
72925;BME280;61070;50.794;7.054;2023-04-08T02:51:41;101418.28;;;8.12;100.00
72925;BME280;61070;50.794;7.054;2023-04-08T02:54:06;101428.84;;;8.12;100.00
72925;BME280;61070;50.794;7.054;2023-04-08T02:56:31;101421.94;;;8.26;100.00
72925;BME280;61070;50.794;7.054;2023-04-08T02:58:57;101428.03;;;8.16;100.00
72925;BME280;61070;50.794;7.054;2023-04-08T03:01:22;101424.47;;;8.14;100.00
72925;BME280;61070;50.794;7.054;2023-04-08T03:03:47;101427.91;;;8.05;100.00
72925;BME280;61070;50.794;7.054;2023-04-08T03:06:13;101421.00;;;8.20;100.00
72925;BME280;61070;50.794;7.054;2023-04-08T03:08:38;101428.84;;;8.09;100.00
72925;BME280;61070;50.794;7.054;2023-04-08T03:11:03;101420.03;;;8.08;100.00
72925;BME280;61070;50.794;7.054;2023-04-08T03:13:29;101426.19;;;8.07;100.00
72925;BME280;61070;50.794;7.054;2023-04-08T03:15:55;101421.72;;;8.03;100.00
72925;BME280;61070;50.794;7.054;2023-04-08T03:18:21;101430.56;;;8.05;100.00
72925;BME280;61070;50.794;7.054;2023-04-08T03:20:46;101428.84;;;8.09;100.00
72925;BME280;61070;50.794;7.054;2023-04-08T03:23:12;101429.69;;;8.08;100.00
72925;BME280;61070;50.794;7.054;2023-04-08T03:25:37;101427.06;;;8.06;100.00
72925;BME280;61070;50.794;7.054;2023-04-08T03:28:02;101432.34;;;8.09;100.00
72925;BME280;61070;50.794;7.054;2023-04-08T03:30:27;101430.59;;;8.11;100.00
72925;BME280;61070;50.794;7.054;2023-04-08T03:32:53;101436.78;;;8.12;100.00
72925;BME280;61070;50.794;7.054;2023-04-08T03:35:18;101437.66;;;8.12;100.00
72925;BME280;61070;50.794;7.054;2023-04-08T03:37:43;101441.25;;;8.17;100.00
72925;BME280;61070;50.794;7.054;2023-04-08T03:40:09;101445.53;;;8.08;100.00
72925;BME280;61070;50.794;7.054;2023-04-08T03:42:35;101439.34;;;8.04;100.00
72925;BME280;61070;50.794;7.054;2023-04-08T03:45:00;101434.09;;;8.06;100.00
72925;BME280;61070;50.794;7.054;2023-04-08T03:47:26;101434.09;;;8.06;100.00
72925;BME280;61070;50.794;7.054;2023-04-08T03:49:52;101436.66;;;8.03;100.00
72925;BME280;61070;50.794;7.054;2023-04-08T03:52:18;101428.84;;;8.09;100.00
72925;BME280;61070;50.794;7.054;2023-04-08T03:54:44;101447.22;;;8.03;100.00
72925;BME280;61070;50.794;7.054;2023-04-08T03:57:09;101435.00;;;8.12;100.00
72925;BME280;61070;50.794;7.054;2023-04-08T03:59:36;101444.66;;;8.09;100.00
72925;BME280;61070;50.794;7.054;2023-04-08T04:02:01;101437.59;;;8.06;100.00
72925;BME280;61070;50.794;7.054;2023-04-08T04:04:26;101441.06;;;8.04;100.00
72925;BME280;61070;50.794;7.054;2023-04-08T04:06:52;101448.16;;;8.05;100.00
72925;BME280;61070;50.794;7.054;2023-04-08T04:09:17;101442.81;;;8.00;100.00
72925;BME280;61070;50.794;7.054;2023-04-08T04:11:42;101439.34;;;8.04;100.00
72925;BME280;61070;50.794;7.054;2023-04-08T04:14:08;101449.00;;;8.04;100.00
72925;BME280;61070;50.794;7.054;2023-04-08T04:16:33;101438.59;;;8.16;100.00
72925;BME280;61070;50.794;7.054;2023-04-08T04:18:58;101440.25;;;8.06;100.00
72925;BME280;61070;50.794;7.054;2023-04-08T04:21:24;101446.44;;;8.10;100.00
72925;BME280;61070;50.794;7.054;2023-04-08T04:23:49;101434.09;;;8.07;100.00
72925;BME280;61070;50.794;7.054;2023-04-08T04:26:14;101449.03;;;8.07;100.00
72925;BME280;61070;50.794;7.054;2023-04-08T04:28:40;101445.53;;;8.08;100.00
72925;BME280;61070;50.794;7.054;2023-04-08T04:31:05;101441.16;;;8.11;100.00
72925;BME280;61070;50.794;7.054;2023-04-08T04:33:30;101450.84;;;8.11;100.00
72925;BME280;61070;50.794;7.054;2023-04-08T04:35:56;101441.16;;;8.10;100.00
72925;BME280;61070;50.794;7.054;2023-04-08T04:38:21;101451.72;;;8.11;100.00
72925;BME280;61070;50.794;7.054;2023-04-08T04:40:46;101459.59;;;8.07;100.00
72925;BME280;61070;50.794;7.054;2023-04-08T04:43:12;101463.94;;;8.03;100.00
72925;BME280;61070;50.794;7.054;2023-04-08T04:45:37;101459.53;;;8.04;100.00
72925;BME280;61070;50.794;7.054;2023-04-08T04:48:02;101456.06;;;8.05;100.00
72925;BME280;61070;50.794;7.054;2023-04-08T04:50:28;101462.22;;;8.05;100.00
72925;BME280;61070;50.794;7.054;2023-04-08T04:52:53;101461.34;;;8.05;100.00
72925;BME280;61070;50.794;7.054;2023-04-08T04:55:19;101461.28;;;8.00;100.00
72925;BME280;61070;50.794;7.054;2023-04-08T04:57:46;101468.38;;;8.06;100.00
72925;BME280;61070;50.794;7.054;2023-04-08T05:00:12;101469.19;;;8.02;100.00
72925;BME280;61070;50.794;7.054;2023-04-08T05:02:37;101463.00;;;7.98;100.00
72925;BME280;61070;50.794;7.054;2023-04-08T05:05:02;101465.69;;;8.01;100.00
72925;BME280;61070;50.794;7.054;2023-04-08T05:07:28;101478.00;;;8.04;100.00
72925;BME280;61070;50.794;7.054;2023-04-08T05:09:53;101476.31;;;8.06;100.00
72925;BME280;61070;50.794;7.054;2023-04-08T05:12:18;101478.00;;;8.02;100.00
72925;BME280;61070;50.794;7.054;2023-04-08T05:14:46;101478.00;;;8.02;100.00
72925;BME280;61070;50.794;7.054;2023-04-08T05:17:12;101474.56;;;8.11;100.00
72925;BME280;61070;50.794;7.054;2023-04-08T05:19:37;101473.69;;;8.09;100.00
72925;BME280;61070;50.794;7.054;2023-04-08T05:22:02;101479.00;;;8.15;100.00
72925;BME280;61070;50.794;7.054;2023-04-08T05:24:27;101473.78;;;8.18;100.00
72925;BME280;61070;50.794;7.054;2023-04-08T05:26:53;101478.97;;;8.12;100.00
72925;BME280;61070;50.794;7.054;2023-04-08T05:29:18;101477.31;;;8.18;100.00
72925;BME280;61070;50.794;7.054;2023-04-08T05:31:45;101470.41;;;8.31;100.00
72925;BME280;61070;50.794;7.054;2023-04-08T05:34:11;101485.34;;;8.32;100.00
72925;BME280;61070;50.794;7.054;2023-04-08T05:36:37;101486.22;;;8.31;100.00
72925;BME280;61070;50.794;7.054;2023-04-08T05:39:02;101483.59;;;8.31;100.00
72925;BME280;61070;50.794;7.054;2023-04-08T05:41:27;101484.47;;;8.32;100.00
72925;BME280;61070;50.794;7.054;2023-04-08T05:43:53;101487.19;;;8.36;100.00
72925;BME280;61070;50.794;7.054;2023-04-08T05:46:18;101488.88;;;8.30;100.00
72925;BME280;61070;50.794;7.054;2023-04-08T05:48:43;101489.75;;;8.33;100.00
72925;BME280;61070;50.794;7.054;2023-04-08T05:51:15;101495.94;;;8.34;100.00
72925;BME280;61070;50.794;7.054;2023-04-08T05:53:42;101491.56;;;8.34;100.00
72925;BME280;61070;50.794;7.054;2023-04-08T05:56:07;101499.44;;;8.33;100.00
72925;BME280;61070;50.794;7.054;2023-04-08T05:58:32;101498.69;;;8.41;100.00
72925;BME280;61070;50.794;7.054;2023-04-08T06:00:57;101510.88;;;8.33;100.00
72925;BME280;61070;50.794;7.054;2023-04-08T06:03:23;101520.78;;;8.51;100.00
72925;BME280;61070;50.794;7.054;2023-04-08T06:05:48;101514.41;;;8.34;100.00
72925;BME280;61070;50.794;7.054;2023-04-08T06:08:13;101511.03;;;8.42;100.00
72925;BME280;61070;50.794;7.054;2023-04-08T06:10:39;101525.03;;;8.37;100.00
72925;BME280;61070;50.794;7.054;2023-04-08T06:13:04;101518.97;;;8.45;100.00
72925;BME280;61070;50.794;7.054;2023-04-08T06:15:29;101528.69;;;8.50;100.00
72925;BME280;61070;50.794;7.054;2023-04-08T06:17:55;101520.78;;;8.50;100.00
72925;BME280;61070;50.794;7.054;2023-04-08T06:20:20;101522.31;;;8.34;100.00
72925;BME280;61070;50.794;7.054;2023-04-08T06:22:45;101521.41;;;8.30;100.00
72925;BME280;61070;50.794;7.054;2023-04-08T06:25:10;101525.88;;;8.34;100.00
72925;BME280;61070;50.794;7.054;2023-04-08T06:27:36;101537.06;;;8.15;100.00
72925;BME280;61070;50.794;7.054;2023-04-08T06:30:01;101539.09;;;8.36;100.00
72925;BME280;61070;50.794;7.054;2023-04-08T06:32:26;101546.06;;;8.31;100.00
72925;BME280;61070;50.794;7.054;2023-04-08T06:34:52;101535.50;;;8.29;100.00
72925;BME280;61070;50.794;7.054;2023-04-08T06:37:17;101545.25;;;8.35;100.00
72925;BME280;61070;50.794;7.054;2023-04-08T06:39:42;101546.19;;;8.40;100.00
72925;BME280;61070;50.794;7.054;2023-04-08T06:42:08;101541.03;;;8.51;100.00
72925;BME280;61070;50.794;7.054;2023-04-08T06:44:33;101552.53;;;8.57;100.00
72925;BME280;61070;50.794;7.054;2023-04-08T06:46:58;101546.34;;;8.54;100.00
72925;BME280;61070;50.794;7.054;2023-04-08T06:49:24;101545.56;;;8.62;100.00
72925;BME280;61070;50.794;7.054;2023-04-08T06:51:51;101546.47;;;8.69;100.00
72925;BME280;61070;50.794;7.054;2023-04-08T06:54:16;101539.41;;;8.68;100.00
72925;BME280;61070;50.794;7.054;2023-04-08T06:56:41;101547.56;;;8.92;100.00
72925;BME280;61070;50.794;7.054;2023-04-08T06:59:07;101535.31;;;9.03;100.00
72925;BME280;61070;50.794;7.054;2023-04-08T07:01:32;101542.38;;;9.03;100.00
72925;BME280;61070;50.794;7.054;2023-04-08T07:03:57;101548.50;;;8.99;100.00
72925;BME280;61070;50.794;7.054;2023-04-08T07:06:22;101548.53;;;9.03;100.00
72925;BME280;61070;50.794;7.054;2023-04-08T07:08:48;101547.66;;;9.01;100.00
72925;BME280;61070;50.794;7.054;2023-04-08T07:11:13;101559.97;;;9.01;100.00
72925;BME280;61070;50.794;7.054;2023-04-08T07:13:38;101559.19;;;9.11;100.00
72925;BME280;61070;50.794;7.054;2023-04-08T07:16:04;101564.53;;;9.19;100.00
72925;BME280;61070;50.794;7.054;2023-04-08T07:18:30;101562.69;;;9.12;100.00
72925;BME280;61070;50.794;7.054;2023-04-08T07:20:55;101567.13;;;9.14;100.00
72925;BME280;61070;50.794;7.054;2023-04-08T07:23:22;101569.75;;;9.11;100.00
72925;BME280;61070;50.794;7.054;2023-04-08T07:25:47;101564.56;;;9.26;100.00
72925;BME280;61070;50.794;7.054;2023-04-08T07:28:12;101572.50;;;9.25;100.00
72925;BME280;61070;50.794;7.054;2023-04-08T07:30:38;101573.53;;;9.48;100.00
72925;BME280;61070;50.794;7.054;2023-04-08T07:33:03;101574.22;;;9.20;100.00
72925;BME280;61070;50.794;7.054;2023-04-08T07:35:29;101575.03;;;9.13;100.00
72925;BME280;61070;50.794;7.054;2023-04-08T07:37:56;101573.16;;;8.98;100.00
72925;BME280;61070;50.794;7.054;2023-04-08T07:40:22;101585.28;;;8.74;100.00
72925;BME280;61070;50.794;7.054;2023-04-08T07:42:47;101591.38;;;8.69;100.00
72925;BME280;61070;50.794;7.054;2023-04-08T07:45:13;101588.69;;;8.64;100.00
72925;BME280;61070;50.794;7.054;2023-04-08T07:47:38;101597.63;;;8.77;100.00
72925;BME280;61070;50.794;7.054;2023-04-08T07:50:04;101593.53;;;9.10;100.00
72925;BME280;61070;50.794;7.054;2023-04-08T07:52:30;101594.53;;;9.24;100.00
72925;BME280;61070;50.794;7.054;2023-04-08T07:54:55;101599.00;;;9.29;100.00
72925;BME280;61070;50.794;7.054;2023-04-08T07:57:20;101599.97;;;9.42;100.00
72925;BME280;61070;50.794;7.054;2023-04-08T07:59:46;101597.34;;;9.50;100.00
72925;BME280;61070;50.794;7.054;2023-04-08T08:02:12;101602.69;;;9.53;100.00
72925;BME280;61070;50.794;7.054;2023-04-08T08:04:38;101599.09;;;9.45;100.00
72925;BME280;61070;50.794;7.054;2023-04-08T08:07:03;101604.38;;;9.40;100.00
72925;BME280;61070;50.794;7.054;2023-04-08T08:09:28;101602.38;;;9.13;100.00
72925;BME280;61070;50.794;7.054;2023-04-08T08:11:54;101612.81;;;8.98;100.00
72925;BME280;61070;50.794;7.054;2023-04-08T08:14:19;101618.81;;;8.83;100.00
72925;BME280;61070;50.794;7.054;2023-04-08T08:16:45;101609.28;;;8.96;100.00
72925;BME280;61070;50.794;7.054;2023-04-08T08:19:11;101620.84;;;9.09;100.00
72925;BME280;61070;50.794;7.054;2023-04-08T08:21:38;101615.75;;;9.36;100.00
72925;BME280;61070;50.794;7.054;2023-04-08T08:24:03;101619.25;;;9.29;100.00
72925;BME280;61070;50.794;7.054;2023-04-08T08:26:29;101621.06;;;9.36;100.00
72925;BME280;61070;50.794;7.054;2023-04-08T08:28:54;101620.09;;;9.28;100.00
72925;BME280;61070;50.794;7.054;2023-04-08T08:31:19;101621.94;;;9.35;100.00
72925;BME280;61070;50.794;7.054;2023-04-08T08:33:45;101622.09;;;9.59;100.00
72925;BME280;61070;50.794;7.054;2023-04-08T08:36:11;101614.16;;;9.53;100.00
72925;BME280;61070;50.794;7.054;2023-04-08T08:38:37;101620.16;;;9.32;100.00
72925;BME280;61070;50.794;7.054;2023-04-08T08:41:03;101626.50;;;9.57;100.00
72925;BME280;61070;50.794;7.054;2023-04-08T08:43:29;101627.47;;;9.67;99.74
72925;BME280;61070;50.794;7.054;2023-04-08T08:45:57;101625.91;;;10.06;99.21
72925;BME280;61070;50.794;7.054;2023-04-08T08:48:23;101625.91;;;9.97;97.40
72925;BME280;61070;50.794;7.054;2023-04-08T08:50:48;101630.31;;;10.01;96.91
72925;BME280;61070;50.794;7.054;2023-04-08T08:53:14;101637.38;;;10.00;95.66
72925;BME280;61070;50.794;7.054;2023-04-08T08:55:39;101632.13;;;10.09;96.00
72925;BME280;61070;50.794;7.054;2023-04-08T08:58:05;101629.50;;;10.11;96.16
72925;BME280;61070;50.794;7.054;2023-04-08T09:00:36;101635.53;;;9.90;95.06
72925;BME280;61070;50.794;7.054;2023-04-08T09:03:18;101646.16;;;9.96;95.98
72925;BME280;61070;50.794;7.054;2023-04-08T09:08:33;101640.91;;;10.04;96.81
72925;BME280;61070;50.794;7.054;2023-04-08T09:11:11;101645.44;;;10.20;96.61
72925;BME280;61070;50.794;7.054;2023-04-08T09:13:37;101642.88;;;10.40;96.03
72925;BME280;61070;50.794;7.054;2023-04-08T09:16:04;101643.84;;;10.54;94.17
72925;BME280;61070;50.794;7.054;2023-04-08T09:18:30;101642.13;;;10.79;95.35
72925;BME280;61070;50.794;7.054;2023-04-08T09:20:57;101640.41;;;10.99;92.54
72925;BME280;61070;50.794;7.054;2023-04-08T09:23:23;101635.09;;;10.92;92.96
72925;BME280;61070;50.794;7.054;2023-04-08T09:25:48;101637.75;;;11.08;92.68
72925;BME280;61070;50.794;7.054;2023-04-08T09:28:19;101640.38;;;10.81;91.34
72925;BME280;61070;50.794;7.054;2023-04-08T09:30:45;101643.88;;;10.71;91.54
72925;BME280;61070;50.794;7.054;2023-04-08T09:33:11;101643.91;;;10.94;94.01
72925;BME280;61070;50.794;7.054;2023-04-08T09:35:37;101646.56;;;10.88;92.41
72925;BME280;61070;50.794;7.054;2023-04-08T09:38:02;101648.25;;;10.60;93.38
72925;BME280;61070;50.794;7.054;2023-04-08T09:40:32;101654.44;;;10.56;95.11
72925;BME280;61070;50.794;7.054;2023-04-08T09:43:03;101655.22;;;10.38;96.32
72925;BME280;61070;50.794;7.054;2023-04-08T09:45:32;101663.22;;;10.50;95.86
72925;BME280;61070;50.794;7.054;2023-04-08T09:48:09;101653.59;;;10.73;95.87
72925;BME280;61070;50.794;7.054;2023-04-08T09:50:45;101652.72;;;10.79;94.05
72925;BME280;61070;50.794;7.054;2023-04-08T09:53:33;101661.50;;;10.64;94.57
72925;BME280;61070;50.794;7.054;2023-04-08T09:55:59;101659.72;;;10.54;94.47
72925;BME280;61070;50.794;7.054;2023-04-08T09:58:48;101655.28;;;10.48;96.36
72925;BME280;61070;50.794;7.054;2023-04-08T10:01:25;101660.66;;;10.74;96.88
72925;BME280;61070;50.794;7.054;2023-04-08T10:03:53;101653.59;;;10.67;94.43
72925;BME280;61070;50.794;7.054;2023-04-08T10:06:20;101647.47;;;10.88;94.45
72925;BME280;61070;50.794;7.054;2023-04-08T10:08:46;101655.44;;;11.02;94.02
72925;BME280;61070;50.794;7.054;2023-04-08T10:11:14;101645.72;;;11.02;94.44
72925;BME280;61070;50.794;7.054;2023-04-08T10:13:41;101649.28;;;11.11;92.87
72925;BME280;61070;50.794;7.054;2023-04-08T10:18:41;101648.41;;;11.22;90.26
72925;BME280;61070;50.794;7.054;2023-04-08T10:23:56;101649.25;;;11.07;90.29
72925;BME280;61070;50.794;7.054;2023-04-08T10:26:34;101654.56;;;11.17;88.06
72925;BME280;61070;50.794;7.054;2023-04-08T10:31:49;101653.63;;;10.79;87.78
72925;BME280;61070;50.794;7.054;2023-04-08T10:34:19;101655.41;;;10.96;89.71
72925;BME280;61070;50.794;7.054;2023-04-08T10:36:45;101658.06;;;10.91;87.17
72925;BME280;61070;50.794;7.054;2023-04-08T10:39:12;101651.03;;;10.99;87.94
72925;BME280;61070;50.794;7.054;2023-04-08T10:41:45;101655.41;;;10.90;87.84
72925;BME280;61070;50.794;7.054;2023-04-08T10:44:21;101653.63;;;10.96;89.59
72925;BME280;61070;50.794;7.054;2023-04-08T10:46:48;101648.34;;;10.92;86.69
72925;BME280;61070;50.794;7.054;2023-04-08T10:49:14;101651.00;;;10.96;86.43
72925;BME280;61070;50.794;7.054;2023-04-08T10:51:40;101653.66;;;10.90;86.66
72925;BME280;61070;50.794;7.054;2023-04-08T10:54:12;101643.03;;;10.98;88.06
72925;BME280;61070;50.794;7.054;2023-04-08T10:56:46;101645.72;;;11.16;87.14
72925;BME280;61070;50.794;7.054;2023-04-08T10:59:13;101641.31;;;11.23;86.74
72925;BME280;61070;50.794;7.054;2023-04-08T11:01:44;101651.94;;;11.23;84.72
72925;BME280;61070;50.794;7.054;2023-04-08T11:04:12;101648.38;;;11.31;85.22
72925;BME280;61070;50.794;7.054;2023-04-08T11:06:37;101651.03;;;11.47;84.65
72925;BME280;61070;50.794;7.054;2023-04-08T11:09:03;101643.94;;;11.55;84.84
72925;BME280;61070;50.794;7.054;2023-04-08T11:11:29;101641.31;;;11.52;83.41
72925;BME280;61070;50.794;7.054;2023-04-08T11:13:55;101641.31;;;11.56;82.83
72925;BME280;61070;50.794;7.054;2023-04-08T11:16:21;101638.63;;;11.53;80.96
72925;BME280;61070;50.794;7.054;2023-04-08T11:18:46;101650.16;;;11.48;81.07
72925;BME280;61070;50.794;7.054;2023-04-08T11:21:12;101647.47;;;11.32;81.80
72925;BME280;61070;50.794;7.054;2023-04-08T11:23:37;101642.19;;;11.71;81.70
72925;BME280;61070;50.794;7.054;2023-04-08T11:26:03;101639.50;;;11.66;79.78
72925;BME280;61070;50.794;7.054;2023-04-08T11:28:28;101632.44;;;11.79;80.51
72925;BME280;61070;50.794;7.054;2023-04-08T11:30:54;101625.34;;;11.88;77.02
72925;BME280;61070;50.794;7.054;2023-04-08T11:33:20;101630.66;;;11.73;78.27
72925;BME280;61070;50.794;7.054;2023-04-08T11:35:49;101627.97;;;11.98;76.83
72925;BME280;61070;50.794;7.054;2023-04-08T11:38:15;101620.03;;;12.01;77.62
72925;BME280;61070;50.794;7.054;2023-04-08T11:40:51;101630.63;;;12.05;77.11
72925;BME280;61070;50.794;7.054;2023-04-08T11:43:17;101633.31;;;11.65;76.43
72925;BME280;61070;50.794;7.054;2023-04-08T11:45:42;101623.63;;;11.68;76.49
72925;BME280;61070;50.794;7.054;2023-04-08T11:48:11;101627.13;;;11.79;77.77
72925;BME280;61070;50.794;7.054;2023-04-08T11:50:38;101628.91;;;11.78;77.84
72925;BME280;61070;50.794;7.054;2023-04-08T11:53:03;101621.81;;;11.79;76.83
72925;BME280;61070;50.794;7.054;2023-04-08T11:55:32;101626.28;;;11.55;77.22
72925;BME280;61070;50.794;7.054;2023-04-08T11:58:02;101625.38;;;11.55;77.86
72925;BME280;61070;50.794;7.054;2023-04-08T12:00:28;101626.28;;;11.25;78.71
72925;BME280;61070;50.794;7.054;2023-04-08T12:02:53;101626.28;;;11.14;79.65
72925;BME280;61070;50.794;7.054;2023-04-08T12:05:19;101637.75;;;11.08;79.77
72925;BME280;61070;50.794;7.054;2023-04-08T12:07:45;101635.97;;;11.09;80.68
72925;BME280;61070;50.794;7.054;2023-04-08T12:10:11;101627.13;;;10.90;78.87
72925;BME280;61070;50.794;7.054;2023-04-08T12:12:37;101635.09;;;10.95;79.21
72925;BME280;61070;50.794;7.054;2023-04-08T12:15:03;101630.69;;;11.03;79.21
72925;BME280;61070;50.794;7.054;2023-04-08T12:17:29;101623.63;;;10.99;78.93
72925;BME280;61070;50.794;7.054;2023-04-08T12:19:54;101625.38;;;10.92;78.59
72925;BME280;61070;50.794;7.054;2023-04-08T12:22:20;101629.81;;;11.01;78.68
72925;BME280;61070;50.794;7.054;2023-04-08T12:24:45;101626.28;;;11.13;77.51
72925;BME280;61070;50.794;7.054;2023-04-08T12:27:11;101632.44;;;11.08;77.61
72925;BME280;61070;50.794;7.054;2023-04-08T12:29:36;101630.69;;;11.29;77.43
72925;BME280;61070;50.794;7.054;2023-04-08T12:32:02;101634.25;;;11.25;76.85
72925;BME280;61070;50.794;7.054;2023-04-08T12:34:28;101632.47;;;11.24;76.20
72925;BME280;61070;50.794;7.054;2023-04-08T12:36:53;101637.78;;;11.22;78.49
72925;BME280;61070;50.794;7.054;2023-04-08T12:39:20;101633.34;;;11.11;77.66
72925;BME280;61070;50.794;7.054;2023-04-08T12:41:46;101640.44;;;11.27;76.59
72925;BME280;61070;50.794;7.054;2023-04-08T12:44:11;101644.84;;;11.11;76.15
72925;BME280;61070;50.794;7.054;2023-04-08T12:46:36;101644.84;;;11.19;75.86
72925;BME280;61070;50.794;7.054;2023-04-08T12:49:02;101633.31;;;11.07;73.46
72925;BME280;61070;50.794;7.054;2023-04-08T12:51:27;101635.13;;;11.10;72.10
72925;BME280;61070;50.794;7.054;2023-04-08T12:53:53;101633.38;;;11.33;74.88
72925;BME280;61070;50.794;7.054;2023-04-08T12:56:18;101627.16;;;11.28;74.45
72925;BME280;61070;50.794;7.054;2023-04-08T12:58:44;101628.91;;;11.42;73.92
72925;BME280;61070;50.794;7.054;2023-04-08T13:01:09;101620.94;;;11.54;74.67
72925;BME280;61070;50.794;7.054;2023-04-08T13:03:34;101623.63;;;11.60;74.23